createdAt,value
2022-11-23T00:01:31.187Z,6.13
2022-11-23T00:04:00.482Z,6.10
2022-11-23T00:06:28.538Z,6.08
2022-11-23T00:08:56.519Z,6.08
2022-11-23T00:11:25.154Z,6.10
2022-11-23T00:13:53.403Z,6.10
2022-11-23T00:16:23.185Z,6.12
2022-11-23T00:18:53.954Z,6.18
2022-11-23T00:21:22.610Z,6.17
2022-11-23T00:23:50.703Z,6.15
2022-11-23T00:26:18.842Z,6.17
2022-11-23T00:28:49.584Z,6.20
2022-11-23T00:31:19.073Z,6.23
2022-11-23T00:33:51.560Z,6.26
2022-11-23T00:36:19.744Z,6.30
2022-11-23T00:38:47.675Z,6.38
2022-11-23T00:41:20.264Z,6.42
2022-11-23T00:43:48.164Z,6.42
2022-11-23T00:46:19.223Z,6.48
2022-11-23T00:48:48.295Z,6.52
2022-11-23T00:51:17.790Z,6.54
2022-11-23T00:53:45.747Z,6.54
2022-11-23T00:56:14.265Z,6.57
2022-11-23T00:58:42.274Z,6.58
2022-11-23T01:01:15.074Z,6.56
2022-11-23T01:03:44.900Z,6.53
2022-11-23T01:06:21.087Z,6.50
2022-11-23T01:08:52.965Z,6.49
2022-11-23T01:11:20.782Z,6.48
2022-11-23T01:13:48.781Z,6.48
2022-11-23T01:16:24.811Z,6.49
2022-11-23T01:19:13.229Z,6.50
2022-11-23T01:21:41.313Z,6.50
2022-11-23T01:24:11.130Z,6.49
2022-11-23T01:26:38.928Z,6.48
2022-11-23T01:29:06.665Z,6.49
2022-11-23T01:31:34.688Z,6.40
2022-11-23T01:34:03.776Z,6.41
2022-11-23T01:36:35.177Z,6.38
2022-11-23T01:39:03.271Z,6.38
2022-11-23T01:41:41.896Z,6.40
2022-11-23T01:44:32.121Z,6.36
2022-11-23T01:47:08.074Z,6.31
2022-11-23T01:49:44.329Z,6.28
2022-11-23T01:52:22.942Z,6.27
2022-11-23T01:54:52.606Z,6.25
2022-11-23T01:57:40.989Z,6.26
2022-11-23T02:00:14.585Z,6.29
2022-11-23T02:02:45.313Z,6.31
2022-11-23T02:05:13.326Z,6.33
2022-11-23T02:07:41.273Z,6.33
2022-11-23T02:10:09.756Z,6.35
2022-11-23T02:12:37.478Z,6.36
2022-11-23T02:15:05.567Z,6.36
2022-11-23T02:17:34.922Z,6.37
2022-11-23T02:20:10.140Z,6.36
2022-11-23T02:23:14.548Z,6.37
2022-11-23T02:25:48.109Z,6.30
2022-11-23T02:28:30.484Z,6.32
2022-11-23T02:31:02.966Z,6.34
2022-11-23T02:33:31.300Z,6.36
2022-11-23T02:36:00.540Z,6.34
2022-11-23T02:38:31.592Z,6.35
2022-11-23T02:40:59.643Z,6.37
2022-11-23T02:43:27.728Z,6.34
2022-11-23T02:45:59.772Z,6.38
2022-11-23T02:48:27.711Z,6.41
2022-11-23T02:50:55.608Z,6.41
2022-11-23T02:53:23.491Z,6.43
2022-11-23T02:55:51.387Z,6.46
2022-11-23T02:58:22.319Z,6.48
2022-11-23T03:00:50.378Z,6.45
2022-11-23T03:03:18.406Z,6.45
2022-11-23T03:05:46.374Z,6.48
2022-11-23T03:08:14.161Z,6.48
2022-11-23T03:10:42.040Z,6.37
2022-11-23T03:13:09.894Z,6.36
2022-11-23T03:15:38.007Z,6.39
2022-11-23T03:18:06.052Z,6.39
2022-11-23T03:20:33.964Z,6.36
2022-11-23T03:23:01.904Z,6.41
2022-11-23T03:25:29.832Z,6.41
2022-11-23T03:27:57.665Z,6.39
2022-11-23T03:30:25.357Z,6.42
2022-11-23T03:32:53.281Z,6.39
2022-11-23T03:35:21.263Z,6.43
2022-11-23T03:37:49.265Z,6.42
2022-11-23T03:40:17.280Z,6.42
2022-11-23T03:42:45.078Z,6.44
2022-11-23T03:45:12.864Z,6.39
2022-11-23T03:47:40.974Z,6.35
2022-11-23T03:50:09.252Z,6.29
2022-11-23T03:52:37.116Z,6.21
2022-11-23T03:55:05.372Z,6.15
2022-11-23T03:57:33.319Z,6.07
2022-11-23T04:00:01.395Z,6.01
2022-11-23T04:02:29.299Z,5.94
2022-11-23T04:04:57.149Z,5.86
2022-11-23T04:07:25.115Z,5.76
2022-11-23T04:09:52.958Z,5.71
2022-11-23T04:12:20.954Z,5.68
2022-11-23T04:14:48.919Z,5.65
2022-11-23T04:17:16.909Z,5.63
2022-11-23T04:19:44.783Z,5.62
2022-11-23T04:22:12.615Z,5.53
2022-11-23T04:24:40.533Z,5.49
2022-11-23T04:27:08.345Z,5.42
2022-11-23T04:29:36.153Z,5.36
2022-11-23T04:32:04.120Z,5.38
2022-11-23T04:34:31.941Z,5.35
2022-11-23T04:36:59.751Z,5.35
2022-11-23T04:39:27.560Z,5.33
2022-11-23T04:41:55.333Z,5.32
2022-11-23T04:44:23.094Z,5.34
2022-11-23T04:46:51.548Z,5.34
2022-11-23T04:49:19.559Z,5.36
2022-11-23T04:51:47.448Z,5.37
2022-11-23T04:54:15.451Z,5.33
2022-11-23T04:56:43.270Z,5.34
2022-11-23T04:59:11.143Z,5.33
2022-11-23T05:01:39.018Z,5.34
2022-11-23T05:04:06.996Z,5.36
2022-11-23T05:06:34.886Z,5.37
2022-11-23T05:09:02.831Z,5.36
2022-11-23T05:11:30.678Z,5.45
2022-11-23T05:13:58.437Z,5.46
2022-11-23T05:16:26.243Z,5.43
2022-11-23T05:18:53.987Z,5.39
2022-11-23T05:21:22.284Z,5.39
2022-11-23T05:23:50.103Z,5.33
2022-11-23T05:26:17.981Z,5.29
2022-11-23T05:28:45.838Z,5.27
2022-11-23T05:31:13.819Z,5.23
2022-11-23T05:33:41.884Z,5.19
2022-11-23T05:36:10.097Z,5.12
2022-11-23T05:38:38.037Z,5.06
2022-11-23T05:41:06.083Z,5.03
2022-11-23T05:43:34.150Z,4.99
2022-11-23T05:46:02.585Z,4.98
2022-11-23T05:48:30.462Z,4.97
2022-11-23T05:51:03.677Z,4.94
2022-11-23T05:53:33.218Z,4.95
2022-11-23T05:56:04.292Z,4.93
2022-11-23T05:58:32.238Z,4.88
2022-11-23T06:01:00.901Z,4.81
2022-11-23T06:03:28.939Z,4.74
2022-11-23T06:05:56.929Z,4.69
2022-11-23T06:08:24.830Z,4.67
2022-11-23T06:10:52.694Z,4.63
2022-11-23T06:13:20.533Z,4.62
2022-11-23T06:15:51.186Z,4.53
2022-11-23T06:18:19.005Z,4.56
2022-11-23T06:20:49.899Z,4.54
2022-11-23T06:23:17.803Z,4.48
2022-11-23T06:25:45.770Z,4.47
2022-11-23T06:28:13.769Z,4.44
2022-11-23T06:30:41.720Z,4.43
2022-11-23T06:33:09.820Z,4.39
2022-11-23T06:35:37.672Z,4.37
2022-11-23T06:38:05.696Z,4.32
2022-11-23T06:40:33.907Z,4.30
2022-11-23T06:43:01.807Z,4.31
2022-11-23T06:45:29.764Z,4.24
2022-11-23T06:47:58.069Z,4.17
2022-11-23T06:50:26.115Z,4.15
2022-11-23T06:53:01.759Z,4.10
2022-11-23T06:55:29.650Z,4.09
2022-11-23T06:58:00.870Z,4.09
2022-11-23T07:00:28.817Z,4.08
2022-11-23T07:02:56.865Z,4.06
2022-11-23T07:05:25.056Z,4.02
2022-11-23T07:07:52.961Z,4.00
2022-11-23T07:10:20.988Z,4.01
2022-11-23T07:12:48.885Z,4.01
2022-11-23T07:15:17.199Z,4.00
2022-11-23T07:17:47.779Z,4.00
2022-11-23T07:20:15.733Z,4.00
2022-11-23T07:22:43.630Z,4.02
2022-11-23T07:25:12.713Z,4.34
2022-11-23T07:27:40.542Z,4.78
2022-11-23T07:30:11.609Z,4.72
2022-11-23T07:32:39.481Z,4.59
2022-11-23T07:35:07.615Z,4.53
2022-11-23T07:37:38.217Z,4.56
2022-11-23T07:40:06.999Z,4.81
2022-11-23T07:42:39.846Z,5.27
2022-11-23T07:45:15.272Z,5.39
2022-11-23T07:47:48.140Z,5.43
2022-11-23T07:50:16.266Z,5.47
2022-11-23T07:52:44.180Z,5.48
2022-11-23T07:55:12.251Z,5.58
2022-11-23T07:57:40.201Z,5.87
2022-11-23T08:00:08.996Z,6.28
2022-11-23T08:02:36.946Z,6.82
2022-11-23T08:05:12.777Z,7.22
2022-11-23T08:07:42.179Z,7.37
2022-11-23T08:10:11.266Z,7.34
2022-11-23T08:12:43.904Z,7.28
2022-11-23T08:15:12.119Z,7.31
2022-11-23T08:17:42.555Z,7.32
2022-11-23T08:20:10.984Z,7.36
2022-11-23T08:22:39.025Z,7.36
2022-11-23T08:25:07.151Z,7.37
2022-11-23T08:27:35.553Z,7.41
2022-11-23T08:30:03.953Z,7.48
2022-11-23T08:32:31.762Z,7.57
2022-11-23T08:34:59.638Z,7.58
2022-11-23T08:37:27.522Z,7.62
2022-11-23T08:39:55.468Z,7.75
2022-11-23T08:42:23.454Z,7.79
2022-11-23T08:44:51.517Z,7.87
2022-11-23T08:47:20.843Z,7.97
2022-11-23T08:49:48.814Z,8.07
2022-11-23T08:52:16.774Z,8.21
2022-11-23T08:54:44.672Z,8.24
2022-11-23T08:57:12.514Z,8.32
2022-11-23T08:59:40.406Z,8.46
2022-11-23T09:02:08.266Z,8.53
2022-11-23T09:04:36.273Z,8.63
2022-11-23T09:07:04.947Z,8.67
2022-11-23T09:09:32.848Z,8.73
2022-11-23T09:12:00.958Z,8.88
2022-11-23T09:14:29.211Z,8.93
2022-11-23T09:17:01.694Z,9.06
2022-11-23T09:19:29.544Z,9.11
2022-11-23T09:21:57.646Z,9.31
2022-11-23T09:24:27.060Z,9.53
2022-11-23T09:26:55.285Z,9.70
2022-11-23T09:29:27.810Z,9.78
2022-11-23T09:31:55.656Z,9.61
2022-11-23T09:34:24.250Z,9.70
2022-11-23T09:36:52.223Z,9.80
2022-11-23T09:39:20.358Z,9.89
2022-11-23T09:41:59.994Z,9.95
2022-11-23T09:45:01.923Z,10.05
2022-11-23T09:47:43.409Z,9.99
2022-11-23T09:50:16.553Z,9.92
2022-11-23T09:52:46.866Z,10.03
2022-11-23T09:55:21.919Z,10.08
2022-11-23T09:57:49.793Z,10.05
2022-11-23T10:00:22.787Z,10.11
2022-11-23T10:02:51.286Z,10.10
2022-11-23T10:05:24.386Z,10.15
2022-11-23T10:08:29.609Z,10.09
2022-11-23T10:10:57.467Z,10.11
2022-11-23T10:14:00.839Z,10.06
2022-11-23T10:16:49.128Z,10.15
2022-11-23T10:19:43.306Z,10.25
2022-11-23T10:22:30.490Z,10.25
2022-11-23T10:25:02.998Z,10.38
2022-11-23T10:27:30.872Z,10.46
2022-11-23T10:29:59.071Z,10.50
2022-11-23T10:32:46.249Z,10.51
2022-11-23T10:35:15.134Z,10.73
2022-11-23T10:37:43.067Z,10.91
2022-11-23T10:40:23.882Z,10.98
2022-11-23T10:42:55.209Z,11.12
2022-11-23T10:45:32.504Z,11.28
2022-11-23T10:48:01.384Z,11.23
2022-11-23T10:50:34.950Z,11.29
2022-11-23T10:53:09.710Z,11.46
2022-11-23T10:55:56.042Z,11.66
2022-11-23T10:58:43.231Z,11.70
2022-11-23T11:01:20.017Z,12.06
2022-11-23T11:03:53.134Z,12.07
2022-11-23T11:06:28.716Z,12.18
2022-11-23T11:09:04.576Z,12.19
2022-11-23T11:11:38.685Z,12.27
2022-11-23T11:14:20.848Z,12.51
2022-11-23T11:16:53.221Z,12.88
2022-11-23T11:19:32.221Z,13.10
2022-11-23T11:22:00.985Z,13.12
2022-11-23T11:24:34.009Z,13.31
2022-11-23T11:27:04.047Z,13.67
2022-11-23T11:29:39.211Z,13.76
2022-11-23T11:32:28.794Z,13.51
2022-11-23T11:35:27.415Z,13.65
2022-11-23T11:38:03.774Z,13.55
2022-11-23T11:40:39.256Z,13.63
2022-11-23T11:43:37.874Z,13.45
2022-11-23T11:46:29.230Z,13.29
2022-11-23T11:49:03.233Z,13.52
2022-11-23T11:51:55.304Z,13.58
2022-11-23T11:54:31.704Z,13.47
2022-11-23T11:57:08.516Z,13.26
2022-11-23T11:59:47.300Z,13.22
2022-11-23T12:02:32.965Z,13.27
2022-11-23T12:05:19.202Z,13.28
2022-11-23T12:08:24.614Z,13.37
2022-11-23T12:10:57.892Z,13.33
2022-11-23T12:13:34.367Z,13.38
2022-11-23T12:16:12.592Z,13.22
2022-11-23T12:18:43.223Z,13.37
2022-11-23T12:21:37.469Z,13.25
2022-11-23T12:24:14.233Z,13.19
2022-11-23T12:27:04.320Z,13.09
2022-11-23T12:29:50.358Z,13.14
2022-11-23T12:32:50.924Z,13.09
2022-11-23T12:35:31.067Z,12.77
2022-11-23T12:38:19.055Z,12.72
2022-11-23T12:40:49.642Z,12.68
2022-11-23T12:43:54.798Z,12.50
2022-11-23T12:46:44.505Z,12.41
2022-11-23T12:49:41.162Z,12.19
2022-11-23T12:52:24.202Z,12.13
2022-11-23T12:55:04.235Z,12.12
2022-11-23T12:57:43.766Z,12.03
2022-11-23T13:00:19.704Z,11.90
2022-11-23T13:02:59.976Z,11.70
2022-11-23T13:06:06.167Z,11.60
2022-11-23T13:09:02.785Z,11.54
2022-11-23T13:12:14.846Z,11.40
2022-11-23T13:15:01.257Z,11.29
2022-11-23T13:17:38.226Z,11.30
2022-11-23T13:20:25.111Z,11.20
2022-11-23T13:22:53.072Z,11.11
2022-11-23T13:25:26.772Z,10.98
2022-11-23T13:27:54.634Z,10.93
2022-11-23T13:31:07.395Z,10.93
2022-11-23T13:33:30.626Z,10.94
2022-11-23T13:36:09.405Z,10.93
2022-11-23T13:38:44.135Z,11.11
2022-11-23T13:41:33.863Z,11.00
2022-11-23T13:44:19.973Z,10.98
2022-11-23T13:47:19.877Z,10.91
2022-11-23T13:49:54.067Z,10.76
2022-11-23T13:52:38.007Z,10.75
2022-11-23T13:55:11.823Z,10.67
2022-11-23T13:57:40.403Z,10.63
2022-11-23T14:00:45.530Z,10.51
2022-11-23T14:03:53.702Z,10.39
2022-11-23T14:06:27.635Z,10.27
2022-11-23T14:09:19.580Z,10.13
2022-11-23T14:12:02.665Z,10.11
2022-11-23T14:14:36.189Z,10.17
2022-11-23T14:17:09.145Z,10.16
2022-11-23T14:19:55.604Z,10.11
2022-11-23T14:22:51.451Z,10.09
2022-11-23T14:25:28.176Z,9.99
2022-11-23T14:28:07.681Z,9.92
2022-11-23T14:30:50.802Z,9.86
2022-11-23T14:33:29.239Z,9.80
2022-11-23T14:36:18.851Z,9.73
2022-11-23T14:39:13.369Z,9.64
2022-11-23T14:41:43.473Z,9.55
2022-11-23T14:44:13.439Z,9.49
2022-11-23T14:47:02.787Z,9.46
2022-11-23T14:49:30.855Z,9.43
2022-11-23T14:51:58.627Z,9.36
2022-11-23T14:54:31.793Z,9.35
2022-11-23T14:57:04.313Z,9.30
2022-11-23T14:59:34.618Z,9.27
2022-11-23T15:02:04.429Z,9.27
2022-11-23T15:04:38.513Z,9.24
2022-11-23T15:07:11.840Z,9.21
2022-11-23T15:10:02.602Z,9.21
2022-11-23T15:12:41.952Z,9.21
2022-11-23T15:15:18.708Z,9.19
2022-11-23T15:17:59.647Z,9.20
2022-11-23T15:20:44.964Z,9.16
2022-11-23T15:23:23.259Z,9.13
2022-11-23T15:25:54.711Z,9.11
2022-11-23T15:28:29.223Z,9.11
2022-11-23T15:30:58.818Z,9.09
2022-11-23T15:33:26.884Z,9.06
2022-11-23T15:35:54.712Z,9.03
2022-11-23T15:38:33.351Z,9.01
2022-11-23T15:41:06.438Z,8.99
2022-11-23T15:43:37.503Z,8.97
2022-11-23T15:46:07.882Z,8.95
2022-11-23T15:48:41.423Z,8.95
2022-11-23T15:51:12.162Z,8.92
2022-11-23T15:54:00.166Z,8.90
2022-11-23T15:56:33.908Z,8.89
2022-11-23T15:59:27.027Z,8.87
2022-11-23T16:01:54.818Z,8.87
2022-11-23T16:04:29.665Z,8.81
2022-11-23T16:06:58.311Z,8.77
2022-11-23T16:09:53.075Z,8.72
2022-11-23T16:12:32.051Z,8.74
2022-11-23T16:15:23.738Z,8.75
2022-11-23T16:17:51.641Z,8.72
2022-11-23T16:20:31.473Z,8.70
2022-11-23T16:23:01.219Z,8.70
2022-11-23T16:25:35.063Z,8.67
2022-11-23T16:28:07.286Z,8.69
2022-11-23T16:30:42.594Z,8.69
2022-11-23T16:33:21.514Z,8.66
2022-11-23T16:35:54.697Z,8.62
2022-11-23T16:38:26.165Z,8.60
2022-11-23T16:41:00.772Z,8.59
2022-11-23T16:43:28.808Z,8.57
2022-11-23T16:46:03.022Z,8.54
2022-11-23T16:48:40.226Z,8.54
2022-11-23T16:51:08.457Z,8.54
2022-11-23T16:54:07.892Z,8.47
2022-11-23T16:56:25.450Z,8.47
2022-11-23T16:58:53.415Z,8.43
2022-11-23T17:01:23.202Z,8.45
2022-11-23T17:03:51.031Z,8.45
2022-11-23T17:06:19.088Z,8.41
2022-11-23T17:08:46.987Z,8.35
2022-11-23T17:11:20.388Z,8.28
2022-11-23T17:13:48.648Z,8.21
2022-11-23T17:16:20.552Z,8.13
2022-11-23T17:18:48.414Z,8.13
2022-11-23T17:21:16.291Z,8.09
2022-11-23T17:23:45.345Z,8.09
2022-11-23T17:26:24.351Z,8.04
2022-11-23T17:28:52.279Z,8.01
2022-11-23T17:31:20.206Z,7.96
2022-11-23T17:33:48.274Z,7.81
2022-11-23T17:36:16.214Z,7.69
2022-11-23T17:38:48.368Z,7.62
2022-11-23T17:41:16.868Z,7.60
2022-11-23T17:43:47.815Z,7.48
2022-11-23T17:46:25.069Z,7.41
2022-11-23T17:48:56.383Z,7.34
2022-11-23T17:51:27.455Z,7.25
2022-11-23T17:53:55.624Z,7.24
2022-11-23T17:56:28.100Z,7.24
2022-11-23T17:58:56.158Z,7.11
2022-11-23T18:01:25.073Z,7.10
2022-11-23T18:03:57.507Z,7.05
2022-11-23T18:06:25.479Z,7.01
2022-11-23T18:08:53.492Z,7.05
2022-11-23T18:11:22.951Z,7.01
2022-11-23T18:13:51.835Z,6.99
2022-11-23T18:16:20.458Z,6.96
2022-11-23T18:18:48.876Z,6.86
2022-11-23T18:21:16.743Z,6.90
2022-11-23T18:23:44.730Z,6.95
2022-11-23T18:26:15.511Z,6.93
2022-11-23T18:28:43.335Z,6.94
2022-11-23T18:31:11.341Z,6.94
2022-11-23T18:33:39.344Z,6.93
2022-11-23T18:36:07.687Z,6.93
2022-11-23T18:38:35.508Z,6.96
2022-11-23T18:41:03.395Z,6.95
2022-11-23T18:43:31.213Z,6.98
2022-11-23T18:45:59.048Z,6.96
2022-11-23T18:48:26.922Z,6.93
2022-11-23T18:50:55.459Z,6.90
2022-11-23T18:53:24.287Z,6.94
2022-11-23T18:55:56.186Z,6.93
2022-11-23T18:58:27.000Z,6.94
2022-11-23T19:00:54.989Z,6.93
2022-11-23T19:03:23.156Z,6.87
2022-11-23T19:05:51.098Z,6.93
2022-11-23T19:08:19.219Z,6.91
2022-11-23T19:10:47.507Z,6.97
2022-11-23T19:13:15.268Z,6.86
2022-11-23T19:15:43.169Z,6.84
2022-11-23T19:18:14.255Z,6.85
2022-11-23T19:20:42.268Z,6.78
2022-11-23T19:23:13.120Z,6.77
2022-11-23T19:25:45.663Z,6.77
2022-11-23T19:28:13.717Z,6.76
2022-11-23T19:30:41.590Z,6.71
2022-11-23T19:33:09.437Z,6.61
2022-11-23T19:35:37.473Z,6.65
2022-11-23T19:38:05.400Z,6.64
2022-11-23T19:40:33.285Z,6.65
2022-11-23T19:43:01.247Z,6.66
2022-11-23T19:45:29.216Z,6.67
2022-11-23T19:47:57.122Z,6.72
2022-11-23T19:50:24.921Z,6.73
2022-11-23T19:53:11.944Z,6.77
2022-11-23T19:55:40.943Z,6.81
2022-11-23T19:58:13.378Z,6.83
2022-11-23T20:00:46.749Z,6.84
2022-11-23T20:03:15.025Z,6.87
2022-11-23T20:05:58.832Z,6.94
2022-11-23T20:08:27.118Z,6.99
2022-11-23T20:10:55.719Z,7.01
2022-11-23T20:13:24.071Z,7.06
2022-11-23T20:15:51.940Z,7.08
2022-11-23T20:18:19.927Z,7.08
2022-11-23T20:20:48.579Z,7.08
2022-11-23T20:23:16.517Z,7.11
2022-11-23T20:25:44.403Z,7.09
2022-11-23T20:28:13.492Z,7.10
2022-11-23T20:30:43.022Z,7.10
2022-11-23T20:33:11.470Z,7.11
2022-11-23T20:35:39.734Z,7.11
2022-11-23T20:38:07.557Z,7.11
2022-11-23T20:40:39.848Z,7.10
2022-11-23T20:43:07.703Z,7.10
2022-11-23T20:45:35.659Z,7.08
2022-11-23T20:48:03.552Z,7.06
2022-11-23T20:50:31.374Z,7.08
2022-11-23T20:53:03.048Z,7.07
2022-11-23T20:55:31.891Z,7.09
2022-11-23T20:57:59.716Z,7.08
2022-11-23T21:00:27.562Z,7.10
2022-11-23T21:02:56.995Z,7.13
2022-11-23T21:05:24.981Z,7.12
2022-11-23T21:07:53.028Z,7.09
2022-11-23T21:10:39.507Z,7.08
2022-11-23T21:13:25.935Z,7.10
2022-11-23T21:15:53.965Z,7.08
2022-11-23T21:18:21.897Z,7.12
2022-11-23T21:20:49.768Z,7.10
2022-11-23T21:23:22.286Z,7.11
2022-11-23T21:25:52.919Z,7.11
2022-11-23T21:28:25.445Z,7.12
2022-11-23T21:30:53.295Z,7.15
2022-11-23T21:33:21.246Z,7.21
2022-11-23T21:35:49.418Z,7.23
2022-11-23T21:38:17.362Z,7.26
2022-11-23T21:40:46.568Z,7.30
2022-11-23T21:43:14.436Z,7.33
2022-11-23T21:45:42.376Z,7.35
2022-11-23T21:48:11.553Z,7.38
2022-11-23T21:50:39.773Z,7.36
2022-11-23T21:53:07.688Z,7.35
2022-11-23T21:55:35.681Z,7.34
2022-11-23T21:58:03.445Z,7.30
2022-11-23T22:00:31.656Z,7.29
2022-11-23T22:02:59.615Z,7.30
2022-11-23T22:05:27.374Z,7.31
2022-11-23T22:08:27.556Z,7.32
2022-11-23T22:10:47.681Z,7.31
2022-11-23T22:13:15.440Z,7.30
2022-11-23T22:15:48.077Z,7.30
2022-11-23T22:18:16.041Z,7.29
2022-11-23T22:20:43.915Z,7.27
2022-11-23T22:23:12.014Z,7.25
2022-11-23T22:25:44.159Z,7.23
2022-11-23T22:28:14.736Z,7.20
2022-11-23T22:30:42.572Z,7.15
2022-11-23T22:33:10.321Z,7.11
2022-11-23T22:35:38.268Z,7.12
2022-11-23T22:38:06.190Z,7.10
2022-11-23T22:40:35.336Z,7.09
2022-11-23T22:43:03.250Z,7.11
2022-11-23T22:45:31.226Z,7.10
2022-11-23T22:47:59.207Z,7.11
2022-11-23T22:50:27.143Z,7.13
2022-11-23T22:52:54.961Z,7.16
2022-11-23T22:55:22.986Z,7.20
2022-11-23T22:57:50.713Z,7.21
2022-11-23T23:00:18.693Z,7.23
2022-11-23T23:02:46.998Z,7.25
2022-11-23T23:05:14.994Z,7.25
2022-11-23T23:07:43.466Z,7.25
2022-11-23T23:10:11.552Z,7.28
2022-11-23T23:12:39.414Z,7.29
2022-11-23T23:15:09.423Z,7.31
2022-11-23T23:17:37.461Z,7.28
2022-11-23T23:20:05.678Z,7.32
2022-11-23T23:22:33.736Z,7.31
2022-11-23T23:25:06.557Z,7.34
2022-11-23T23:27:40.355Z,7.34
2022-11-23T23:30:08.816Z,7.23
2022-11-23T23:32:36.944Z,7.23
2022-11-23T23:35:05.073Z,7.22
2022-11-23T23:37:35.656Z,7.21
2022-11-23T23:40:03.487Z,7.18
2022-11-23T23:42:31.284Z,7.17
2022-11-23T23:44:58.986Z,7.20
2022-11-23T23:47:27.326Z,7.24
2022-11-23T23:49:59.920Z,7.29
2022-11-23T23:52:28.335Z,7.33
2022-11-23T23:54:56.167Z,7.35
2022-11-23T23:57:23.983Z,7.37
2022-11-23T23:59:51.858Z,7.39
